SFR261 FALE-FAOR
Flight info
| Callsign | SFR261 |
|---|---|
| Flight time | 0h 53m |
| Altitude | 30000 |
| Route | GYV2B GYV DCT BEBAS DCT EPSAK DCT AVILO AVILO1B |
| Aircraft | B738/M-SDE2E3FGHIRWXY/LB1 |
Departure
| Time | 2026-05-05 14:41 |
|---|---|
| Airport | King Shaka International Airport (FALE) |
Arrival
| Time | 2026-05-05 15:34 |
|---|---|
| Airport | O.R. Tambo International Airport (FAOR) |
| Time | Latitude | Longitude | Altitude | Speed | Heading |
|---|---|---|---|---|---|
| 2026-05-05 13:58 | -29.62060 | 31.10494 | 279 ft | 0 kts | 307° |
| 2026-05-05 14:34 | -29.62067 | 31.10505 | 282 ft | 2 kts | 306° |
| 2026-05-05 14:34 | -29.62076 | 31.10521 | 285 ft | 2 kts | 303° |
| 2026-05-05 14:35 | -29.62085 | 31.10537 | 285 ft | 2 kts | 290° |
| 2026-05-05 14:35 | -29.62085 | 31.10556 | 284 ft | 2 kts | 229° |
| 2026-05-05 14:35 | -29.62080 | 31.10562 | 282 ft | 0 kts | 219° |
| 2026-05-05 14:37 | -29.62081 | 31.10561 | 279 ft | 1 kts | 219° |
| 2026-05-05 14:37 | -29.62122 | 31.10525 | 279 ft | 12 kts | 216° |
| 2026-05-05 14:38 | -29.62200 | 31.10457 | 279 ft | 16 kts | 217° |
| 2026-05-05 14:38 | -29.62273 | 31.10448 | 281 ft | 11 kts | 138° |
| 2026-05-05 14:38 | -29.62325 | 31.10526 | 279 ft | 13 kts | 127° |
| 2026-05-05 14:38 | -29.62384 | 31.10615 | 279 ft | 12 kts | 128° |
| 2026-05-05 14:39 | -29.62407 | 31.10649 | 280 ft | 0 kts | 128° |
| 2026-05-05 14:39 | -29.62427 | 31.10680 | 280 ft | 11 kts | 126° |
| 2026-05-05 14:39 | -29.62476 | 31.10768 | 280 ft | 13 kts | 103° |
| 2026-05-05 14:40 | -29.62445 | 31.10826 | 281 ft | 5 kts | 37° |
| 2026-05-05 14:40 | -29.62415 | 31.10853 | 281 ft | 26 kts | 37° |
| 2026-05-05 14:40 | -29.62042 | 31.11177 | 281 ft | 106 kts | 37° |
| 2026-05-05 14:40 | -29.61269 | 31.11851 | 322 ft | 167 kts | 36° |
| 2026-05-05 14:41 | -29.60310 | 31.12743 | 935 ft | 185 kts | 42° |
| 2026-05-05 14:41 | -29.59625 | 31.14014 | 1760 ft | 193 kts | 72° |
| 2026-05-05 14:41 | -29.58937 | 31.15323 | 2653 ft | 196 kts | 40° |
| 2026-05-05 14:41 | -29.57712 | 31.15969 | 3527 ft | 195 kts | 15° |
| 2026-05-05 14:42 | -29.56395 | 31.16337 | 4385 ft | 195 kts | 13° |
| 2026-05-05 14:42 | -29.55076 | 31.16679 | 5157 ft | 195 kts | 5° |
| 2026-05-05 14:42 | -29.53694 | 31.16332 | 5398 ft | 220 kts | 326° |
| 2026-05-05 14:42 | -29.52463 | 31.15154 | 5785 ft | 237 kts | 319° |
| 2026-05-05 14:43 | -29.51223 | 31.13883 | 6480 ft | 244 kts | 318° |
| 2026-05-05 14:43 | -29.49905 | 31.12553 | 7020 ft | 257 kts | 319° |
| 2026-05-05 14:43 | -29.48544 | 31.11207 | 7877 ft | 259 kts | 319° |
| 2026-05-05 14:43 | -29.47173 | 31.09876 | 8873 ft | 256 kts | 319° |
| 2026-05-05 14:44 | -29.45806 | 31.08568 | 9837 ft | 256 kts | 319° |
| 2026-05-05 14:44 | -29.44405 | 31.07242 | 10401 ft | 271 kts | 319° |
| 2026-05-05 14:44 | -29.42879 | 31.05808 | 10571 ft | 297 kts | 319° |
| 2026-05-05 14:44 | -29.41213 | 31.04254 | 10779 ft | 319 kts | 320° |
| 2026-05-05 14:45 | -29.39451 | 31.02622 | 11278 ft | 329 kts | 320° |
| 2026-05-05 14:45 | -29.37662 | 31.00973 | 12065 ft | 330 kts | 320° |
| 2026-05-05 14:45 | -29.35875 | 30.99332 | 12845 ft | 332 kts | 320° |
| 2026-05-05 14:45 | -29.34051 | 30.97661 | 13533 ft | 336 kts | 320° |
| 2026-05-05 14:46 | -29.32208 | 30.95975 | 14149 ft | 340 kts | 320° |
| 2026-05-05 14:46 | -29.30365 | 30.94290 | 14866 ft | 341 kts | 320° |
| 2026-05-05 14:46 | -29.28516 | 30.92602 | 15445 ft | 346 kts | 320° |
| 2026-05-05 14:46 | -29.26607 | 30.90860 | 16146 ft | 347 kts | 320° |
| 2026-05-05 14:47 | -29.24710 | 30.89131 | 16809 ft | 350 kts | 321° |
| 2026-05-05 14:47 | -29.22793 | 30.87384 | 17421 ft | 352 kts | 321° |
| 2026-05-05 14:47 | -29.20903 | 30.85660 | 18130 ft | 351 kts | 321° |
| 2026-05-05 14:47 | -29.18986 | 30.83915 | 18662 ft | 354 kts | 321° |
| 2026-05-05 14:48 | -29.17045 | 30.82148 | 19101 ft | 359 kts | 321° |
| 2026-05-05 14:48 | -29.15080 | 30.80360 | 19542 ft | 363 kts | 321° |
| 2026-05-05 14:48 | -29.13099 | 30.78560 | 20025 ft | 365 kts | 321° |
| 2026-05-05 14:48 | -29.11109 | 30.76752 | 20575 ft | 366 kts | 320° |
| 2026-05-05 14:49 | -29.09104 | 30.74931 | 21051 ft | 369 kts | 320° |
| 2026-05-05 14:49 | -29.07088 | 30.73100 | 21520 ft | 372 kts | 320° |
| 2026-05-05 14:49 | -29.05057 | 30.71258 | 22013 ft | 373 kts | 320° |
| 2026-05-05 14:49 | -29.03020 | 30.69410 | 22485 ft | 375 kts | 320° |
| 2026-05-05 14:50 | -29.00970 | 30.67552 | 22922 ft | 378 kts | 320° |
| 2026-05-05 14:50 | -28.98899 | 30.65675 | 23335 ft | 380 kts | 320° |
| 2026-05-05 14:50 | -28.96816 | 30.63789 | 23684 ft | 384 kts | 320° |
| 2026-05-05 14:50 | -28.94720 | 30.61893 | 24033 ft | 386 kts | 320° |
| 2026-05-05 14:51 | -28.93325 | 30.60631 | 24280 ft | 387 kts | 320° |
| 2026-05-05 14:51 | -28.91214 | 30.58723 | 24650 ft | 388 kts | 320° |
| 2026-05-05 14:51 | -28.89091 | 30.56804 | 24998 ft | 390 kts | 320° |
| 2026-05-05 14:51 | -28.86958 | 30.54878 | 25345 ft | 392 kts | 320° |
| 2026-05-05 14:52 | -28.84819 | 30.52947 | 25703 ft | 393 kts | 321° |
| 2026-05-05 14:52 | -28.82677 | 30.51015 | 26137 ft | 392 kts | 321° |
| 2026-05-05 14:52 | -28.80548 | 30.49096 | 26605 ft | 389 kts | 321° |
| 2026-05-05 14:52 | -28.78426 | 30.47187 | 27095 ft | 387 kts | 321° |
| 2026-05-05 14:53 | -28.76322 | 30.45291 | 27594 ft | 385 kts | 320° |
| 2026-05-05 14:53 | -28.74230 | 30.43407 | 28092 ft | 383 kts | 321° |
| 2026-05-05 14:53 | -28.72140 | 30.41526 | 28592 ft | 381 kts | 321° |
| 2026-05-05 14:53 | -28.70067 | 30.39661 | 29154 ft | 378 kts | 321° |
| 2026-05-05 14:54 | -28.68009 | 30.37811 | 29697 ft | 376 kts | 321° |
| 2026-05-05 14:54 | -28.65957 | 30.35967 | 29889 ft | 377 kts | 321° |
| 2026-05-05 14:54 | -28.61831 | 30.32262 | 29891 ft | 376 kts | 320° |
| 2026-05-05 14:55 | -28.57736 | 30.28589 | 29894 ft | 375 kts | 321° |
| 2026-05-05 14:55 | -28.53641 | 30.24921 | 29906 ft | 375 kts | 320° |
| 2026-05-05 14:56 | -28.49540 | 30.21250 | 29909 ft | 376 kts | 320° |
| 2026-05-05 14:56 | -28.45456 | 30.17598 | 29912 ft | 376 kts | 320° |
| 2026-05-05 14:57 | -28.41313 | 30.13898 | 29917 ft | 377 kts | 320° |
| 2026-05-05 14:57 | -28.37217 | 30.10244 | 29911 ft | 377 kts | 320° |
| 2026-05-05 14:58 | -28.33071 | 30.06548 | 29921 ft | 377 kts | 320° |
| 2026-05-05 14:58 | -28.28974 | 30.02900 | 29920 ft | 376 kts | 320° |
| 2026-05-05 14:59 | -28.24860 | 29.99240 | 29925 ft | 376 kts | 320° |
| 2026-05-05 14:59 | -28.20749 | 29.95587 | 29934 ft | 375 kts | 321° |
| 2026-05-05 15:00 | -28.17305 | 29.92529 | 29934 ft | 375 kts | 321° |
| 2026-05-05 15:00 | -28.12527 | 29.88290 | 29941 ft | 376 kts | 321° |
| 2026-05-05 15:01 | -28.08407 | 29.84640 | 29936 ft | 376 kts | 321° |
| 2026-05-05 15:01 | -28.04290 | 29.80996 | 29946 ft | 376 kts | 321° |
| 2026-05-05 15:02 | -28.00170 | 29.77353 | 29955 ft | 376 kts | 321° |
| 2026-05-05 15:02 | -27.96049 | 29.73712 | 29972 ft | 376 kts | 321° |
| 2026-05-05 15:03 | -27.91928 | 29.70075 | 29971 ft | 376 kts | 321° |
| 2026-05-05 15:03 | -27.87805 | 29.66438 | 29963 ft | 376 kts | 321° |
| 2026-05-05 15:04 | -27.83689 | 29.62813 | 29979 ft | 375 kts | 321° |
| 2026-05-05 15:04 | -27.79434 | 29.59405 | 29991 ft | 375 kts | 325° |
| 2026-05-05 15:05 | -27.72836 | 29.54629 | 29987 ft | 376 kts | 325° |
| 2026-05-05 15:06 | -27.68441 | 29.51441 | 29997 ft | 375 kts | 325° |
| 2026-05-05 15:06 | -27.64064 | 29.48255 | 30001 ft | 374 kts | 325° |
| 2026-05-05 15:07 | -27.59695 | 29.45071 | 30000 ft | 373 kts | 325° |
| 2026-05-05 15:07 | -27.55345 | 29.41904 | 30010 ft | 372 kts | 325° |
| 2026-05-05 15:08 | -27.51012 | 29.38751 | 30009 ft | 371 kts | 325° |
| 2026-05-05 15:08 | -27.46680 | 29.35602 | 30004 ft | 370 kts | 325° |
| 2026-05-05 15:09 | -27.42345 | 29.32454 | 30003 ft | 371 kts | 325° |
| 2026-05-05 15:09 | -27.38006 | 29.29307 | 30001 ft | 371 kts | 325° |
| 2026-05-05 15:10 | -27.33661 | 29.26157 | 30001 ft | 372 kts | 325° |
| 2026-05-05 15:10 | -27.29319 | 29.23012 | 29998 ft | 374 kts | 325° |
| 2026-05-05 15:11 | -27.24945 | 29.19848 | 29997 ft | 374 kts | 325° |
| 2026-05-05 15:11 | -27.20882 | 29.16237 | 30009 ft | 373 kts | 314° |
| 2026-05-05 15:12 | -27.17650 | 29.11698 | 30003 ft | 374 kts | 303° |
| 2026-05-05 15:12 | -27.15137 | 29.06599 | 29998 ft | 372 kts | 301° |
| 2026-05-05 15:12 | -27.13926 | 29.04089 | 29976 ft | 358 kts | 302° |
| 2026-05-05 15:13 | -27.12757 | 29.01674 | 30005 ft | 349 kts | 302° |
| 2026-05-05 15:13 | -27.10430 | 28.96913 | 30012 ft | 347 kts | 302° |
| 2026-05-05 15:13 | -27.09262 | 28.94536 | 29702 ft | 347 kts | 302° |
| 2026-05-05 15:14 | -27.08109 | 28.92190 | 29349 ft | 341 kts | 302° |
| 2026-05-05 15:14 | -27.06972 | 28.89879 | 28971 ft | 336 kts | 302° |
| 2026-05-05 15:14 | -27.05845 | 28.87591 | 28516 ft | 334 kts | 302° |
| 2026-05-05 15:14 | -27.04731 | 28.85329 | 28094 ft | 330 kts | 302° |
| 2026-05-05 15:15 | -27.03620 | 28.83078 | 27670 ft | 328 kts | 302° |
| 2026-05-05 15:15 | -27.02522 | 28.80850 | 27253 ft | 325 kts | 302° |
| 2026-05-05 15:15 | -27.01428 | 28.78635 | 26862 ft | 323 kts | 302° |
| 2026-05-05 15:15 | -27.00361 | 28.76473 | 26737 ft | 312 kts | 302° |
| 2026-05-05 15:16 | -26.99323 | 28.74372 | 26592 ft | 303 kts | 303° |
| 2026-05-05 15:16 | -26.98086 | 28.72523 | 26448 ft | 292 kts | 314° |
| 2026-05-05 15:16 | -26.96509 | 28.71072 | 25947 ft | 296 kts | 325° |
| 2026-05-05 15:16 | -26.94727 | 28.69910 | 25534 ft | 298 kts | 328° |
| 2026-05-05 15:17 | -26.92902 | 28.68828 | 25204 ft | 296 kts | 329° |
| 2026-05-05 15:17 | -26.91079 | 28.67767 | 24838 ft | 295 kts | 329° |
| 2026-05-05 15:17 | -26.89257 | 28.66705 | 24489 ft | 294 kts | 329° |
| 2026-05-05 15:17 | -26.87445 | 28.65642 | 24124 ft | 294 kts | 329° |
| 2026-05-05 15:18 | -26.85633 | 28.64573 | 23770 ft | 294 kts | 329° |
| 2026-05-05 15:18 | -26.83824 | 28.63500 | 23389 ft | 294 kts | 329° |
| 2026-05-05 15:18 | -26.82021 | 28.62428 | 23003 ft | 293 kts | 329° |
| 2026-05-05 15:18 | -26.80248 | 28.61372 | 22644 ft | 291 kts | 329° |
| 2026-05-05 15:19 | -26.78442 | 28.60297 | 22294 ft | 290 kts | 329° |
| 2026-05-05 15:19 | -26.76671 | 28.59241 | 21950 ft | 288 kts | 329° |
| 2026-05-05 15:19 | -26.74929 | 28.58204 | 21620 ft | 286 kts | 329° |
| 2026-05-05 15:19 | -26.73181 | 28.57163 | 21342 ft | 284 kts | 329° |
| 2026-05-05 15:20 | -26.71428 | 28.56119 | 21063 ft | 287 kts | 329° |
| 2026-05-05 15:20 | -26.69650 | 28.55060 | 20598 ft | 293 kts | 329° |
| 2026-05-05 15:20 | -26.67853 | 28.53991 | 20266 ft | 292 kts | 329° |
| 2026-05-05 15:20 | -26.66067 | 28.52928 | 20045 ft | 290 kts | 329° |
| 2026-05-05 15:21 | -26.64294 | 28.51874 | 19808 ft | 288 kts | 329° |
| 2026-05-05 15:21 | -26.62528 | 28.50824 | 19575 ft | 287 kts | 329° |
| 2026-05-05 15:21 | -26.60762 | 28.49774 | 19353 ft | 288 kts | 329° |
| 2026-05-05 15:21 | -26.58978 | 28.48713 | 19126 ft | 291 kts | 329° |
| 2026-05-05 15:22 | -26.57188 | 28.47649 | 18900 ft | 291 kts | 330° |
| 2026-05-05 15:22 | -26.55409 | 28.46593 | 18641 ft | 288 kts | 329° |
| 2026-05-05 15:22 | -26.53643 | 28.45545 | 18324 ft | 287 kts | 330° |
| 2026-05-05 15:22 | -26.51942 | 28.44408 | 17937 ft | 284 kts | 318° |
| 2026-05-05 15:23 | -26.50793 | 28.42652 | 17616 ft | 284 kts | 294° |
| 2026-05-05 15:23 | -26.50461 | 28.40471 | 17347 ft | 289 kts | 274° |
| 2026-05-05 15:23 | -26.50631 | 28.38247 | 17159 ft | 286 kts | 270° |
| 2026-05-05 15:23 | -26.50889 | 28.36075 | 17044 ft | 278 kts | 269° |
| 2026-05-05 15:24 | -26.51165 | 28.33947 | 16807 ft | 275 kts | 269° |
| 2026-05-05 15:24 | -26.51444 | 28.31850 | 16578 ft | 271 kts | 269° |
| 2026-05-05 15:24 | -26.51722 | 28.29812 | 16350 ft | 267 kts | 269° |
| 2026-05-05 15:24 | -26.52004 | 28.27780 | 16120 ft | 263 kts | 269° |
| 2026-05-05 15:25 | -26.52290 | 28.25773 | 15881 ft | 260 kts | 269° |
| 2026-05-05 15:25 | -26.52584 | 28.23791 | 15665 ft | 258 kts | 269° |
| 2026-05-05 15:25 | -26.52880 | 28.21817 | 15469 ft | 258 kts | 269° |
| 2026-05-05 15:25 | -26.53173 | 28.19839 | 15255 ft | 258 kts | 269° |
| 2026-05-05 15:26 | -26.53465 | 28.17856 | 15056 ft | 260 kts | 269° |
| 2026-05-05 15:26 | -26.53724 | 28.15857 | 14844 ft | 257 kts | 277° |
| 2026-05-05 15:26 | -26.53342 | 28.13983 | 14614 ft | 245 kts | 303° |
| 2026-05-05 15:26 | -26.52188 | 28.12642 | 14435 ft | 239 kts | 328° |
| 2026-05-05 15:27 | -26.50604 | 28.12179 | 14241 ft | 240 kts | 355° |
| 2026-05-05 15:27 | -26.48969 | 28.12611 | 13815 ft | 250 kts | 10° |
| 2026-05-05 15:27 | -26.47318 | 28.13328 | 13053 ft | 257 kts | 13° |
| 2026-05-05 15:27 | -26.45644 | 28.14084 | 12307 ft | 261 kts | 13° |
| 2026-05-05 15:28 | -26.43947 | 28.14846 | 11578 ft | 265 kts | 13° |
| 2026-05-05 15:28 | -26.42226 | 28.15611 | 10865 ft | 267 kts | 13° |
| 2026-05-05 15:28 | -26.40500 | 28.16396 | 10159 ft | 269 kts | 15° |
| 2026-05-05 15:28 | -26.38828 | 28.17255 | 9450 ft | 259 kts | 18° |
| 2026-05-05 15:29 | -26.37238 | 28.18117 | 8723 ft | 249 kts | 19° |
| 2026-05-05 15:29 | -26.35717 | 28.18838 | 8314 ft | 227 kts | 13° |
| 2026-05-05 15:29 | -26.34280 | 28.19360 | 8052 ft | 204 kts | 7° |
| 2026-05-05 15:29 | -26.32988 | 28.19714 | 8026 ft | 179 kts | 7° |
| 2026-05-05 15:30 | -26.31862 | 28.20041 | 7976 ft | 158 kts | 7° |
| 2026-05-05 15:30 | -26.30795 | 28.20360 | 8035 ft | 168 kts | 7° |
| 2026-05-05 15:30 | -26.29602 | 28.20722 | 8014 ft | 176 kts | 8° |
| 2026-05-05 15:30 | -26.28454 | 28.21083 | 7909 ft | 169 kts | 7° |
| 2026-05-05 15:31 | -26.27334 | 28.21432 | 7693 ft | 163 kts | 8° |
| 2026-05-05 15:31 | -26.26291 | 28.21758 | 7536 ft | 152 kts | 8° |
| 2026-05-05 15:31 | -26.25285 | 28.22069 | 7331 ft | 147 kts | 9° |
| 2026-05-05 15:31 | -26.24297 | 28.22376 | 7129 ft | 147 kts | 9° |
| 2026-05-05 15:32 | -26.23323 | 28.22677 | 6964 ft | 146 kts | 9° |
| 2026-05-05 15:32 | -26.22334 | 28.22982 | 6783 ft | 147 kts | 9° |
| 2026-05-05 15:32 | -26.21334 | 28.23303 | 6627 ft | 152 kts | 11° |
| 2026-05-05 15:32 | -26.20330 | 28.23645 | 6331 ft | 146 kts | 11° |
| 2026-05-05 15:33 | -26.19364 | 28.23934 | 6069 ft | 140 kts | 11° |
| 2026-05-05 15:33 | -26.18458 | 28.24213 | 5919 ft | 132 kts | 13° |
| 2026-05-05 15:33 | -26.17573 | 28.24494 | 5785 ft | 136 kts | 10° |
| 2026-05-05 15:33 | -26.16633 | 28.24766 | 5601 ft | 137 kts | 12° |
| 2026-05-05 15:34 | -26.15798 | 28.25028 | 5514 ft | 112 kts | 12° |
| 2026-05-05 15:34 | -26.15257 | 28.25191 | 5512 ft | 49 kts | 15° |
| 2026-05-05 15:34 | -26.14975 | 28.25278 | 5508 ft | 34 kts | 15° |
| 2026-05-05 15:34 | -26.14707 | 28.25321 | 5503 ft | 38 kts | 356° |
| 2026-05-05 15:35 | -26.14544 | 28.25280 | 5507 ft | 20 kts | 329° |
| 2026-05-05 15:35 | -26.14426 | 28.25159 | 5512 ft | 19 kts | 315° |
| 2026-05-05 15:35 | -26.14337 | 28.25063 | 5526 ft | 17 kts | 316° |
| 2026-05-05 15:35 | -26.14238 | 28.24957 | 5530 ft | 25 kts | 316° |
| 2026-05-05 15:36 | -26.14151 | 28.24862 | 5532 ft | 18 kts | 316° |
| 2026-05-05 15:36 | -26.14012 | 28.24710 | 5531 ft | 20 kts | 316° |
| 2026-05-05 15:36 | -26.13926 | 28.24580 | 5536 ft | 23 kts | 272° |
| 2026-05-05 15:36 | -26.13950 | 28.24454 | 5529 ft | 28 kts | 256° |
| 2026-05-05 15:37 | -26.13987 | 28.24248 | 5532 ft | 26 kts | 277° |
| 2026-05-05 15:37 | -26.13944 | 28.24068 | 5546 ft | 23 kts | 286° |
| 2026-05-05 15:37 | -26.13907 | 28.23920 | 5556 ft | 19 kts | 286° |
| 2026-05-05 15:37 | -26.13868 | 28.23767 | 5557 ft | 22 kts | 286° |
| 2026-05-05 15:38 | -26.13828 | 28.23609 | 5558 ft | 17 kts | 285° |
| 2026-05-05 15:38 | -26.13789 | 28.23452 | 5549 ft | 26 kts | 285° |
| 2026-05-05 15:38 | -26.13765 | 28.23320 | 5547 ft | 15 kts | 268° |
| 2026-05-05 15:38 | -26.13759 | 28.23246 | 5546 ft | 8 kts | 276° |
| 2026-05-05 15:39 | -26.13750 | 28.23195 | 5550 ft | 6 kts | 303° |
| 2026-05-05 15:39 | -26.13719 | 28.23187 | 5548 ft | 4 kts | 5° |
| 2026-05-05 15:39 | -26.13704 | 28.23189 | 5547 ft | 2 kts | 6° |
| 2026-05-05 15:39 | -26.13696 | 28.23190 | 5548 ft | 0 kts | 6° |
| 2026-05-05 15:40 | -26.13695 | 28.23190 | 5548 ft | 0 kts | 6° |
| 2026-05-05 15:42 | -26.13694 | 28.23190 | 5548 ft | 0 kts | 6° |